Time;durP1;ratioP1;P1;durP2;ratioP2;P2;SDS_P1;SDS_P2;PMS_P1;PMS_P2;Temp;Humidity;BMP_temperature;BMP_pressure;BME280_temperature;BME280_humidity;BME280_pressure;Samples;Min_cycle;Max_cycle;Signal;HPM_P1;HPM_P2
2022/12/21 00:00:24;;;;;;;10.65;9.73;;;12.30;99.90;;;;;;2072021;28;20018;-72
2022/12/21 00:01:27;;;;;;;11.35;10.45;;;12.30;99.90;;;;;;2075957;28;20033;-72
2022/12/21 00:02:28;;;;;;;11.38;10.38;;;12.30;99.90;;;;;;2072465;28;20021;-72
2022/12/21 00:03:28;;;;;;;10.88;9.98;;;12.30;99.90;;;;;;2073094;28;20518;-72
2022/12/21 00:04:29;;;;;;;10.90;9.90;;;12.30;99.90;;;;;;2074640;28;20030;-72
2022/12/21 00:05:29;;;;;;;11.30;10.13;;;12.30;99.90;;;;;;2072202;28;20063;-72
2022/12/21 00:06:33;;;;;;;11.35;10.27;;;12.20;99.90;;;;;;2073233;28;20030;-72
2022/12/21 00:07:34;;;;;;;11.20;10.10;;;12.20;99.90;;;;;;2074706;28;20020;-72
2022/12/21 00:08:36;;;;;;;11.38;10.38;;;12.20;99.90;;;;;;2074434;28;20116;-72
2022/12/21 00:09:37;;;;;;;11.95;10.75;;;12.20;99.90;;;;;;2073513;28;20551;-72
2022/12/21 00:10:37;;;;;;;11.57;10.38;;;12.20;99.90;;;;;;2073630;28;20647;-72
2022/12/21 00:11:38;;;;;;;13.10;11.25;;;12.20;99.90;;;;;;2075527;28;20026;-72
2022/12/21 00:12:39;;;;;;;12.15;11.05;;;12.20;99.90;;;;;;2074322;28;20911;-72
2022/12/21 00:13:40;;;;;;;12.18;10.98;;;12.20;99.90;;;;;;2074845;28;20053;-72
2022/12/21 00:14:41;;;;;;;12.07;10.82;;;12.20;99.90;;;;;;2074666;28;20103;-72
2022/12/21 00:15:41;;;;;;;11.65;10.63;;;12.20;99.90;;;;;;2078279;28;20029;-72
2022/12/21 00:16:42;;;;;;;12.77;11.73;;;12.20;99.90;;;;;;2080593;28;20021;-72
2022/12/21 00:17:43;;;;;;;12.50;11.35;;;12.20;99.90;;;;;;2074030;28;20378;-72
2022/12/21 00:18:44;;;;;;;12.50;11.40;;;12.20;99.90;;;;;;2074982;28;20087;-72
2022/12/21 00:19:45;;;;;;;12.30;11.10;;;12.20;99.90;;;;;;2073999;28;20074;-72
2022/12/21 00:20:58;;;;;;;12.32;11.20;;;12.20;99.90;;;;;;2072714;28;20095;-72
2022/12/21 00:21:59;;;;;;;12.07;10.93;;;12.20;99.90;;;;;;2073704;28;20028;-72
2022/12/21 00:22:59;;;;;;;12.88;11.68;;;12.20;99.90;;;;;;2073400;28;20041;-72
2022/12/21 00:24:00;;;;;;;12.50;11.30;;;12.20;99.90;;;;;;2074450;28;20029;-72
2022/12/21 00:25:01;;;;;;;12.85;11.70;;;12.20;99.90;;;;;;2073593;28;20091;-72
2022/12/21 00:26:04;;;;;;;12.07;11.05;;;12.20;99.90;;;;;;2074281;28;20025;-72
2022/12/21 00:27:04;;;;;;;12.18;11.18;;;12.20;99.90;;;;;;2073168;28;20397;-72
2022/12/21 00:28:05;;;;;;;13.80;12.50;;;12.30;99.90;;;;;;2075853;28;20033;-72
2022/12/21 00:29:06;;;;;;;12.38;11.18;;;12.30;99.90;;;;;;2073915;28;20076;-72
2022/12/21 00:30:07;;;;;;;13.48;12.25;;;12.30;99.90;;;;;;2073413;28;20152;-72
2022/12/21 00:31:10;;;;;;;12.93;11.73;;;12.30;99.90;;;;;;2073496;28;20029;-72
2022/12/21 00:32:11;;;;;;;12.60;11.38;;;12.30;99.90;;;;;;2074954;28;20056;-72
2022/12/21 00:33:11;;;;;;;12.93;11.77;;;12.30;99.90;;;;;;2073672;28;20045;-72
2022/12/21 00:34:17;;;;;;;12.52;11.23;;;12.30;99.90;;;;;;2075275;28;20676;-72
2022/12/21 00:35:18;;;;;;;13.02;11.77;;;12.30;99.90;;;;;;2074522;28;20091;-72
2022/12/21 00:36:20;;;;;;;12.77;11.65;;;12.20;99.90;;;;;;2073568;28;20083;-72
2022/12/21 00:37:20;;;;;;;12.55;11.45;;;12.30;99.90;;;;;;2073895;28;20084;-72
2022/12/21 00:38:21;;;;;;;13.27;12.05;;;12.20;99.90;;;;;;2073691;28;20887;-72
2022/12/21 00:39:21;;;;;;;13.45;12.13;;;12.20;99.90;;;;;;2076152;28;20469;-72
2022/12/21 00:40:22;;;;;;;12.90;11.80;;;12.30;99.90;;;;;;2073303;28;20809;-72
2022/12/21 00:41:24;;;;;;;12.98;11.75;;;12.30;99.90;;;;;;2071344;28;20068;-71
2022/12/21 00:42:25;;;;;;;12.23;11.05;;;12.30;99.90;;;;;;2072271;28;20021;-72
2022/12/21 00:43:26;;;;;;;12.60;11.40;;;12.30;99.90;;;;;;2075729;28;20030;-72
2022/12/21 00:44:26;;;;;;;12.43;11.32;;;12.30;99.90;;;;;;2076218;28;20160;-72
2022/12/21 00:45:27;;;;;;;13.23;11.93;;;12.30;99.90;;;;;;2073942;28;20018;-72
2022/12/21 00:46:31;;;;;;;12.43;11.32;;;12.30;99.90;;;;;;2072482;28;20854;-72
2022/12/21 00:47:32;;;;;;;13.85;12.45;;;12.20;99.90;;;;;;2072846;28;20022;-72
2022/12/21 00:48:35;;;;;;;12.55;11.40;;;12.20;99.90;;;;;;2075535;28;20473;-72
2022/12/21 00:49:35;;;;;;;13.38;11.75;;;12.20;99.90;;;;;;2073174;28;20784;-72
2022/12/21 00:50:36;;;;;;;13.13;11.95;;;12.20;99.90;;;;;;2074013;28;20363;-72
2022/12/21 00:51:36;;;;;;;14.32;13.02;;;12.20;99.90;;;;;;2073582;28;20045;-72
2022/12/21 00:52:37;;;;;;;14.15;12.85;;;12.20;99.90;;;;;;2073189;28;20022;-72
2022/12/21 00:53:38;;;;;;;13.05;11.95;;;12.20;99.90;;;;;;2074785;28;20029;-72
2022/12/21 00:54:39;;;;;;;13.00;11.90;;;12.20;99.90;;;;;;2073228;28;20045;-72
2022/12/21 00:55:39;;;;;;;12.57;11.55;;;12.20;99.90;;;;;;2074774;28;20025;-72
2022/12/21 00:56:40;;;;;;;12.82;11.73;;;12.20;99.90;;;;;;2065980;28;20398;-72
2022/12/21 00:57:40;;;;;;;13.68;12.35;;;12.20;99.90;;;;;;2066523;28;20038;-72
2022/12/21 00:58:41;;;;;;;13.05;11.95;;;12.20;99.90;;;;;;2072962;28;20385;-72
2022/12/21 00:59:42;;;;;;;13.05;11.95;;;12.30;99.90;;;;;;2074345;28;20026;-72
2022/12/21 01:00:42;;;;;;;15.10;13.57;;;12.20;99.90;;;;;;2072247;28;20548;-72
2022/12/21 01:01:43;;;;;;;14.23;12.88;;;12.30;99.90;;;;;;2073296;28;20096;-72
2022/12/21 01:02:43;;;;;;;13.65;12.40;;;12.20;99.90;;;;;;2073996;28;20115;-72
2022/12/21 01:03:44;;;;;;;13.68;12.48;;;12.20;99.90;;;;;;2074676;28;20041;-72
2022/12/21 01:04:44;;;;;;;13.73;12.43;;;12.20;99.90;;;;;;2072912;28;20762;-72
2022/12/21 01:05:46;;;;;;;13.40;12.18;;;12.20;99.90;;;;;;2073515;28;20068;-72
2022/12/21 01:06:47;;;;;;;14.70;13.40;;;12.20;99.90;;;;;;2076551;28;20104;-72
2022/12/21 01:07:47;;;;;;;13.57;12.38;;;12.20;99.90;;;;;;2076624;28;20076;-72
2022/12/21 01:08:48;;;;;;;14.95;13.52;;;12.30;99.90;;;;;;2072940;28;20517;-72
2022/12/21 01:09:49;;;;;;;14.88;13.57;;;12.20;99.90;;;;;;2072316;28;20034;-72
2022/12/21 01:10:55;;;;;;;16.00;14.60;;;12.30;99.90;;;;;;2073820;28;20029;-72
2022/12/21 01:11:55;;;;;;;15.07;13.68;;;12.20;99.90;;;;;;2075444;28;20731;-72
2022/12/21 01:12:57;;;;;;;15.32;13.93;;;12.20;99.90;;;;;;2072205;28;20397;-72
2022/12/21 01:13:58;;;;;;;14.20;13.00;;;12.20;99.90;;;;;;2073271;28;20021;-72
2022/12/21 01:14:58;;;;;;;15.75;14.15;;;12.20;99.90;;;;;;2073488;28;20893;-72
2022/12/21 01:15:59;;;;;;;14.80;13.45;;;12.20;99.90;;;;;;2073509;28;20041;-72
2022/12/21 01:16:59;;;;;;;15.40;13.88;;;12.20;99.90;;;;;;2075708;28;20030;-72
2022/12/21 01:18:00;;;;;;;16.30;14.85;;;12.20;99.90;;;;;;2072252;28;20712;-72
2022/12/21 01:19:03;;;;;;;15.13;13.82;;;12.20;99.90;;;;;;2074025;28;20041;-72
2022/12/21 01:20:05;;;;;;;16.17;14.57;;;12.20;99.90;;;;;;2074366;28;20133;-72
2022/12/21 01:21:05;;;;;;;14.90;13.60;;;12.20;99.90;;;;;;2074515;28;20037;-72
2022/12/21 01:22:06;;;;;;;15.13;13.77;;;12.20;99.90;;;;;;2075234;28;20449;-74
2022/12/21 01:23:07;;;;;;;15.90;14.48;;;12.20;99.90;;;;;;2072382;28;20064;-72
2022/12/21 01:24:11;;;;;;;16.42;14.80;;;12.20;99.90;;;;;;2073874;28;20462;-72
2022/12/21 01:25:12;;;;;;;16.13;14.50;;;12.20;99.90;;;;;;2071458;28;20030;-72
2022/12/21 01:26:12;;;;;;;16.20;14.80;;;12.20;99.90;;;;;;2073656;28;20034;-72
2022/12/21 01:27:13;;;;;;;16.20;14.70;;;12.20;99.90;;;;;;2073181;28;20942;-72
2022/12/21 01:28:14;;;;;;;16.20;14.57;;;12.20;99.90;;;;;;2075243;28;20049;-72
2022/12/21 01:29:15;;;;;;;15.35;13.85;;;12.20;99.90;;;;;;2072810;28;20378;-72
2022/12/21 01:30:16;;;;;;;16.83;15.43;;;12.20;99.90;;;;;;2074888;28;20254;-72
2022/12/21 01:31:16;;;;;;;16.52;15.10;;;12.20;99.90;;;;;;2074372;28;20037;-72
2022/12/21 01:32:17;;;;;;;17.33;15.73;;;12.20;99.90;;;;;;2073500;28;20109;-72
2022/12/21 01:33:19;;;;;;;17.17;15.38;;;12.20;99.90;;;;;;2073591;28;20109;-72
2022/12/21 01:34:19;;;;;;;17.42;15.75;;;12.20;99.90;;;;;;2077265;28;20022;-72
2022/12/21 01:35:21;;;;;;;19.02;17.10;;;12.20;99.90;;;;;;2077641;28;20508;-72
2022/12/21 01:36:25;;;;;;;18.08;16.55;;;12.20;99.90;;;;;;2072910;28;20116;-72
2022/12/21 01:37:26;;;;;;;18.23;16.52;;;12.20;99.90;;;;;;2074105;28;20397;-72
2022/12/21 01:38:26;;;;;;;18.00;16.27;;;12.20;99.90;;;;;;2072004;28;20048;-72
2022/12/21 01:39:29;;;;;;;18.27;16.50;;;12.30;99.90;;;;;;2075400;28;20511;-72
2022/12/21 01:40:30;;;;;;;17.38;15.88;;;12.20;99.90;;;;;;2074400;28;20025;-72
2022/12/21 01:41:31;;;;;;;18.05;16.35;;;12.20;99.90;;;;;;2074131;28;20105;-72
2022/12/21 01:42:31;;;;;;;17.65;15.95;;;12.20;99.90;;;;;;2072362;28;20097;-72
2022/12/21 01:43:43;;;;;;;18.80;17.00;;;12.20;99.90;;;;;;2074073;28;20702;-72
2022/12/21 01:45:03;;;;;;;18.42;16.58;;;12.20;99.90;;;;;;2075658;28;20057;-72
2022/12/21 01:46:07;;;;;;;19.13;17.23;;;12.20;99.90;;;;;;2074198;28;20081;-72
2022/12/21 01:47:14;;;;;;;18.67;16.92;;;12.20;99.90;;;;;;2075111;28;20033;-72
2022/12/21 01:48:17;;;;;;;18.65;16.85;;;12.20;99.90;;;;;;2074614;28;20107;-72
2022/12/21 01:49:26;;;;;;;19.55;17.50;;;12.20;99.90;;;;;;2074241;28;20477;-72
2022/12/21 01:50:36;;;;;;;20.20;18.23;;;12.20;99.90;;;;;;2075760;28;20045;-72
2022/12/21 01:51:37;;;;;;;19.63;17.83;;;12.10;99.90;;;;;;2073443;28;20112;-72
2022/12/21 01:52:38;;;;;;;20.05;18.13;;;12.10;99.90;;;;;;2074929;28;20024;-72
2022/12/21 01:53:52;;;;;;;20.38;18.38;;;12.10;99.90;;;;;;2075308;28;20026;-72
2022/12/21 01:54:59;;;;;;;19.48;17.48;;;12.20;99.90;;;;;;2072295;28;20048;-72
2022/12/21 01:56:03;;;;;;;20.35;18.35;;;12.10;99.90;;;;;;2074687;28;20033;-72
2022/12/21 01:57:07;;;;;;;20.08;18.02;;;12.10;99.90;;;;;;2074599;28;20034;-72
2022/12/21 01:58:08;;;;;;;20.63;18.45;;;12.10;99.90;;;;;;2075512;28;20034;-72
2022/12/21 01:59:15;;;;;;;20.52;18.55;;;12.10;99.90;;;;;;2072746;28;20033;-72
2022/12/21 02:00:16;;;;;;;19.95;18.10;;;12.20;99.90;;;;;;2076230;28;20123;-72
2022/12/21 02:01:16;;;;;;;21.23;19.00;;;12.20;99.90;;;;;;2076802;28;20025;-72
2022/12/21 02:02:23;;;;;;;20.42;18.30;;;12.20;99.90;;;;;;2075784;28;20037;-72
2022/12/21 02:03:33;;;;;;;22.13;19.75;;;12.20;99.90;;;;;;2075100;28;20035;-72
2022/12/21 02:04:34;;;;;;;21.73;19.58;;;12.20;99.90;;;;;;2075461;28;20065;-72
2022/12/21 02:05:48;;;;;;;21.73;19.33;;;12.20;99.90;;;;;;2073706;28;20103;-72
2022/12/21 02:06:55;;;;;;;22.33;20.13;;;12.20;99.90;;;;;;2073999;28;20029;-72
2022/12/21 02:07:58;;;;;;;22.08;19.10;;;12.20;99.90;;;;;;2075808;28;20029;-72
2022/12/21 02:09:01;;;;;;;22.77;19.75;;;12.20;99.90;;;;;;2074476;28;20037;-72
2022/12/21 02:10:02;;;;;;;22.10;19.83;;;12.20;99.90;;;;;;2072711;28;20427;-72
2022/12/21 02:11:04;;;;;;;22.48;20.20;;;12.10;99.90;;;;;;2075083;28;20033;-72
2022/12/21 02:12:08;;;;;;;22.77;20.48;;;12.10;99.90;;;;;;2075738;28;20057;-72
2022/12/21 02:13:13;;;;;;;22.73;20.33;;;12.20;99.90;;;;;;2073436;28;20032;-72
2022/12/21 02:14:15;;;;;;;23.42;21.13;;;12.10;99.90;;;;;;2074474;28;20046;-72
2022/12/21 02:15:15;;;;;;;26.15;21.50;;;12.10;99.90;;;;;;2075705;28;20029;-72
2022/12/21 02:16:31;;;;;;;27.30;21.58;;;12.20;99.90;;;;;;2061499;28;20023;-72
2022/12/21 02:17:37;;;;;;;24.50;21.88;;;12.20;99.90;;;;;;2068793;28;20026;-72
2022/12/21 02:19:26;;;;;;;24.90;22.20;;;12.20;99.90;;;;;;2074473;28;20560;-72
2022/12/21 02:20:43;;;;;;;23.48;21.17;;;12.10;99.90;;;;;;2058204;28;20193;-72
2022/12/21 02:21:56;;;;;;;23.50;20.98;;;12.10;99.90;;;;;;2062203;28;20089;-72
2022/12/21 02:23:22;;;;;;;26.13;23.33;;;12.10;99.90;;;;;;2075550;28;20029;-72
2022/12/21 02:24:40;;;;;;;25.50;22.90;;;12.10;99.90;;;;;;2075132;28;20117;-72
2022/12/21 02:25:59;;;;;;;27.70;22.45;;;12.10;99.90;;;;;;2075038;28;20025;-72
2022/12/21 02:26:59;;;;;;;26.00;23.15;;;12.00;99.90;;;;;;2075503;28;20026;-72
2022/12/21 02:28:44;;;;;;;25.25;22.65;;;12.10;99.90;;;;;;2075115;28;20029;-72
2022/12/21 02:30:04;;;;;;;27.05;23.15;;;12.10;99.90;;;;;;2060655;28;20041;-72
2022/12/21 02:31:05;;;;;;;;;;;12.00;99.90;;;;;;2062391;28;20041;-72
2022/12/21 02:32:18;;;;;;;25.88;22.33;;;12.00;99.90;;;;;;2075499;28;19913;-72
2022/12/21 02:34:04;;;;;;;25.40;22.70;;;12.00;99.90;;;;;;2074761;28;20057;-72
2022/12/21 02:35:10;;;;;;;25.02;22.33;;;12.00;99.90;;;;;;2078986;28;20243;-72
2022/12/21 02:36:11;;;;;;;30.17;24.70;;;12.00;99.90;;;;;;2080192;28;20040;-72
2022/12/21 02:37:22;;;;;;;27.15;23.55;;;12.00;99.90;;;;;;2084370;28;20037;-72
2022/12/21 02:38:33;;;;;;;26.63;23.20;;;12.00;99.90;;;;;;2083487;28;20073;-72
2022/12/21 02:39:54;;;;;;;26.15;23.30;;;12.00;99.90;;;;;;2082495;28;20545;-72
2022/12/21 02:41:31;;;;;;;25.58;22.83;;;12.00;99.90;;;;;;2076856;28;20401;-72
2022/12/21 02:44:47;;;;;;;25.98;22.35;;;12.00;99.90;;;;;;2074539;28;20037;-72
2022/12/21 02:45:55;;;;;;;25.20;22.50;;;12.00;99.90;;;;;;2074663;28;20036;-72
2022/12/21 02:47:11;;;;;;;25.27;22.58;;;12.00;99.90;;;;;;2075409;28;20040;-72
2022/12/21 02:48:20;;;;;;;28.88;23.67;;;12.00;99.90;;;;;;2076050;28;20036;-72
2022/12/21 02:49:34;;;;;;;25.33;22.58;;;12.00;99.90;;;;;;2075547;28;20044;-72
2022/12/21 02:50:41;;;;;;;24.80;22.23;;;12.00;99.90;;;;;;2075842;28;20060;-72
2022/12/21 02:51:50;;;;;;;26.88;23.48;;;12.00;99.90;;;;;;2074412;28;20030;-72
2022/12/21 02:53:14;;;;;;;25.85;21.95;;;12.00;99.90;;;;;;2075571;28;20428;-72
2022/12/21 02:54:16;;;;;;;26.63;21.85;;;12.00;99.90;;;;;;2073510;28;20030;-72
2022/12/21 02:55:16;;;;;;;26.42;23.33;;;12.00;99.90;;;;;;2074515;28;20045;-72
2022/12/21 02:56:19;;;;;;;26.75;23.08;;;12.00;99.90;;;;;;2074797;28;20036;-72
2022/12/21 02:57:33;;;;;;;26.80;22.52;;;12.00;99.90;;;;;;2073373;28;20420;-72
2022/12/21 02:58:34;;;;;;;25.77;22.70;;;12.00;99.90;;;;;;2074462;28;20037;-72
2022/12/21 02:59:44;;;;;;;31.17;23.92;;;12.00;99.90;;;;;;2073760;28;20030;-72
2022/12/21 03:01:08;;;;;;;26.60;22.40;;;12.10;99.90;;;;;;2073393;28;20552;-72
2022/12/21 03:02:44;;;;;;;27.17;22.38;;;12.10;99.90;;;;;;2073676;28;20509;-72
2022/12/21 03:04:13;;;;;;;28.13;22.27;;;12.00;99.90;;;;;;2075384;28;20029;-72
2022/12/21 03:05:38;;;;;;;29.50;22.55;;;12.00;99.90;;;;;;2074996;28;20044;-72
2022/12/21 03:07:01;;;;;;;26.30;21.70;;;12.00;99.90;;;;;;2075123;28;20219;-72
2022/12/21 03:08:37;;;;;;;30.00;23.10;;;12.00;99.90;;;;;;2073384;28;20036;-72
2022/12/21 03:09:55;;;;;;;31.77;22.83;;;12.00;99.90;;;;;;2070342;28;20385;-72
2022/12/21 03:11:02;;;;;;;29.00;22.77;;;11.90;99.90;;;;;;2074299;28;20048;-72
2022/12/21 03:12:25;;;;;;;28.08;23.25;;;12.00;99.90;;;;;;2075291;28;20029;-72
2022/12/21 03:13:41;;;;;;;29.05;22.30;;;12.00;99.90;;;;;;2075058;28;20402;-72
2022/12/21 03:14:57;;;;;;;26.05;21.42;;;12.00;99.90;;;;;;2075435;28;20026;-72
2022/12/21 03:16:18;;;;;;;30.42;23.58;;;12.00;99.90;;;;;;2075419;28;20037;-72
2022/12/21 03:17:31;;;;;;;27.25;22.52;;;12.00;99.90;;;;;;2075850;28;20026;-72
2022/12/21 03:19:02;;;;;;;29.42;23.00;;;11.90;99.90;;;;;;2073590;28;20036;-72
2022/12/21 03:20:08;;;;;;;27.17;23.05;;;12.00;99.90;;;;;;2074420;28;20041;-72
2022/12/21 03:21:26;;;;;;;26.42;22.42;;;12.00;99.90;;;;;;2073700;28;20076;-72
2022/12/21 03:22:31;;;;;;;27.65;23.00;;;12.00;99.90;;;;;;2074639;28;20030;-72
2022/12/21 03:23:53;;;;;;;26.48;22.92;;;12.00;99.90;;;;;;2076018;28;20022;-72
2022/12/21 03:24:59;;;;;;;30.10;23.25;;;12.00;99.90;;;;;;2074229;28;20120;-72
2022/12/21 03:26:19;;;;;;;25.98;21.95;;;12.00;99.90;;;;;;2074219;28;20030;-72
2022/12/21 03:27:23;;;;;;;25.75;22.52;;;12.00;99.90;;;;;;2074648;28;20386;-72
2022/12/21 03:28:31;;;;;;;30.63;22.95;;;12.00;99.90;;;;;;2075605;28;20025;-72
2022/12/21 03:29:36;;;;;;;29.13;21.85;;;12.00;99.90;;;;;;2073024;28;20022;-72
2022/12/21 03:30:45;;;;;;;29.67;23.27;;;12.00;99.90;;;;;;2073902;28;20026;-72
2022/12/21 03:32:05;;;;;;;29.60;23.42;;;12.00;99.90;;;;;;2074662;28;20116;-72
2022/12/21 03:33:10;;;;;;;29.15;24.00;;;12.00;99.90;;;;;;2073472;28;20025;-72
2022/12/21 03:34:19;;;;;;;29.75;24.30;;;12.00;99.90;;;;;;2076108;28;20025;-72
2022/12/21 03:35:26;;;;;;;31.42;25.02;;;12.00;99.90;;;;;;2073757;28;20045;-72
2022/12/21 03:36:33;;;;;;;29.85;23.83;;;12.00;99.90;;;;;;2075374;28;20033;-72
2022/12/21 03:37:38;;;;;;;30.33;24.38;;;12.00;99.90;;;;;;2073861;28;20034;-72
2022/12/21 03:38:51;;;;;;;28.08;24.08;;;12.00;99.90;;;;;;2074527;28;20240;-72
2022/12/21 03:39:57;;;;;;;28.77;23.65;;;12.00;99.90;;;;;;2075016;28;20093;-72
2022/12/21 03:41:02;;;;;;;30.77;24.42;;;12.00;99.90;;;;;;2073439;28;20160;-72
2022/12/21 03:42:15;;;;;;;28.67;23.70;;;12.00;99.90;;;;;;2074442;28;20018;-72
2022/12/21 03:43:21;;;;;;;35.80;23.60;;;12.00;99.90;;;;;;2082860;28;20059;-72
2022/12/21 03:44:33;;;;;;;28.20;23.05;;;12.00;99.90;;;;;;2081374;28;20024;-72
2022/12/21 03:45:39;;;;;;;29.40;23.65;;;12.00;99.90;;;;;;2073472;28;20022;-72
2022/12/21 03:46:49;;;;;;;29.05;23.88;;;12.00;99.90;;;;;;2074715;28;20536;-72
2022/12/21 03:48:12;;;;;;;27.88;24.30;;;12.00;99.90;;;;;;2076833;28;20025;-72
2022/12/21 03:49:24;;;;;;;26.95;22.10;;;12.00;99.90;;;;;;2068848;28;20050;-72
2022/12/21 03:50:33;;;;;;;29.13;23.45;;;12.00;99.90;;;;;;2073577;28;20022;-72
2022/12/21 03:51:49;;;;;;;27.20;22.67;;;12.00;99.90;;;;;;2074737;28;20582;-72
2022/12/21 03:52:56;;;;;;;29.08;22.63;;;12.00;99.90;;;;;;2074313;28;20911;-72
2022/12/21 03:54:20;;;;;;;29.10;23.02;;;12.00;99.90;;;;;;2073392;28;20659;-72
2022/12/21 03:55:28;;;;;;;28.95;22.75;;;12.00;99.90;;;;;;2072232;28;20037;-72
2022/12/21 03:56:34;;;;;;;26.80;22.02;;;12.00;99.90;;;;;;2072626;28;20035;-72
2022/12/21 03:57:35;;;;;;;26.15;22.27;;;12.00;99.90;;;;;;2074972;28;20026;-72
2022/12/21 03:58:36;;;;;;;26.92;22.40;;;11.90;99.90;;;;;;2073290;28;20076;-72
2022/12/21 03:59:41;;;;;;;31.65;22.67;;;11.90;99.90;;;;;;2073444;28;20022;-72
2022/12/21 04:00:51;;;;;;;26.17;22.73;;;12.00;99.90;;;;;;2075352;28;20643;-72
2022/12/21 04:02:10;;;;;;;26.75;22.35;;;12.00;99.90;;;;;;2075241;28;20049;-72
2022/12/21 04:03:19;;;;;;;31.50;23.70;;;12.00;99.90;;;;;;2073523;28;20021;-72
2022/12/21 04:04:36;;;;;;;29.15;21.77;;;11.90;99.90;;;;;;2077098;28;20030;-72
2022/12/21 04:05:46;;;;;;;27.55;22.00;;;11.90;99.90;;;;;;2074227;28;20013;-72
2022/12/21 04:06:50;;;;;;;28.15;23.02;;;11.90;99.90;;;;;;2075986;28;20022;-72
2022/12/21 04:07:51;;;;;;;27.80;23.13;;;11.90;99.90;;;;;;2074045;28;20112;-72
2022/12/21 04:08:53;;;;;;;26.23;21.55;;;11.90;99.90;;;;;;2073837;28;20477;-72
2022/12/21 04:10:12;;;;;;;28.38;23.00;;;11.90;99.90;;;;;;2075372;28;20037;-72
2022/12/21 04:12:38;;;;;;;30.40;22.95;;;11.90;99.90;;;;;;2074722;28;20029;-72
2022/12/21 04:13:39;;;;;;;29.85;22.70;;;11.90;99.90;;;;;;2073653;28;20030;-72
2022/12/21 04:14:40;;;;;;;27.42;22.33;;;11.90;99.90;;;;;;2074036;28;20037;-72
2022/12/21 04:17:00;;;;;;;26.95;22.13;;;12.00;99.90;;;;;;2075845;28;20037;-72
2022/12/21 04:18:01;;;;;;;26.25;22.63;;;12.00;99.90;;;;;;2071278;28;20440;-72
2022/12/21 04:20:23;;;;;;;29.65;22.17;;;12.00;99.90;;;;;;2073152;28;20055;-72
2022/12/21 04:21:24;;;;;;;25.88;22.35;;;12.00;99.90;;;;;;2074043;28;20026;-72
2022/12/21 04:29:07;;;;;;;28.15;22.60;;;11.90;99.90;;;;;;2073244;28;20873;-72
2022/12/21 04:30:08;;;;;;;27.92;23.30;;;11.90;99.90;;;;;;2073579;28;20080;-72
2022/12/21 04:31:09;;;;;;;28.70;22.52;;;11.90;99.90;;;;;;2074887;28;20662;-72
2022/12/21 04:32:10;;;;;;;29.67;22.80;;;11.90;99.90;;;;;;2072263;28;20026;-72
2022/12/21 04:33:16;;;;;;;29.25;22.88;;;11.90;99.90;;;;;;2073303;28;20030;-72
2022/12/21 04:34:17;;;;;;;28.75;22.80;;;12.00;99.90;;;;;;2072565;28;20504;-72
2022/12/21 04:35:17;;;;;;;25.20;21.40;;;12.00;99.90;;;;;;2071372;28;20686;-72
2022/12/21 04:37:38;;;;;;;28.98;21.65;;;12.00;99.90;;;;;;2072978;28;20489;-72
2022/12/21 04:38:41;;;;;;;26.13;22.30;;;12.00;99.90;;;;;;2071865;28;20071;-72
2022/12/21 04:39:42;;;;;;;28.92;22.77;;;12.00;99.90;;;;;;2074354;28;20021;-72
2022/12/21 04:40:42;;;;;;;25.95;22.38;;;12.00;99.90;;;;;;2073638;28;20065;-72
2022/12/21 04:41:43;;;;;;;26.35;21.73;;;12.00;99.90;;;;;;2074471;28;20034;-72
2022/12/21 04:42:43;;;;;;;32.03;22.15;;;12.00;99.90;;;;;;2073248;28;20025;-72
2022/12/21 04:43:44;;;;;;;27.65;22.25;;;12.00;99.90;;;;;;2071008;28;20045;-72
2022/12/21 04:44:44;;;;;;;28.42;22.70;;;12.00;99.90;;;;;;2074223;28;20033;-72
2022/12/21 04:45:45;;;;;;;25.65;20.95;;;12.00;99.90;;;;;;2073335;28;20036;-72
2022/12/21 04:46:46;;;;;;;24.73;20.75;;;12.00;99.90;;;;;;2077551;28;20076;-72
2022/12/21 04:47:46;;;;;;;26.58;21.30;;;12.00;99.90;;;;;;2077648;28;20029;-72
2022/12/21 04:48:47;;;;;;;26.20;21.30;;;12.00;99.90;;;;;;2074785;28;20335;-72
2022/12/21 04:49:48;;;;;;;24.20;20.92;;;12.00;99.90;;;;;;2074858;28;20464;-72
2022/12/21 04:50:48;;;;;;;27.00;20.40;;;12.00;99.90;;;;;;2075434;28;20725;-72
2022/12/21 04:51:49;;;;;;;28.58;20.92;;;12.00;99.90;;;;;;2073358;28;20033;-72
2022/12/21 04:52:49;;;;;;;26.08;19.45;;;12.00;99.90;;;;;;2073580;28;20031;-72
2022/12/21 04:53:51;;;;;;;29.75;19.98;;;12.00;99.90;;;;;;2072947;28;20017;-72
2022/12/21 04:54:52;;;;;;;26.45;19.92;;;12.00;99.90;;;;;;2074061;28;20017;-72
2022/12/21 04:55:52;;;;;;;27.45;19.60;;;12.00;99.90;;;;;;2074504;28;20132;-72
2022/12/21 04:56:53;;;;;;;23.95;19.33;;;12.00;99.90;;;;;;2073435;28;20039;-72
2022/12/21 04:57:53;;;;;;;23.15;18.50;;;12.00;99.90;;;;;;2076276;28;20040;-72
2022/12/21 04:58:54;;;;;;;23.98;19.42;;;12.00;99.90;;;;;;2074734;28;20404;-72
2022/12/21 04:59:55;;;;;;;24.33;19.48;;;12.00;99.90;;;;;;2072075;28;20444;-72
2022/12/21 05:00:55;;;;;;;23.95;18.08;;;12.10;99.90;;;;;;2073179;28;20033;-72
2022/12/21 05:01:56;;;;;;;24.75;17.98;;;12.00;99.90;;;;;;2073553;28;20120;-72
2022/12/21 05:02:56;;;;;;;23.85;17.92;;;12.10;99.90;;;;;;2073147;28;20037;-72
2022/12/21 05:03:58;;;;;;;23.95;17.98;;;12.00;99.90;;;;;;2075072;28;20029;-72
2022/12/21 05:04:58;;;;;;;22.52;17.42;;;12.00;99.90;;;;;;2072952;28;20042;-72
2022/12/21 05:05:59;;;;;;;23.80;17.75;;;12.00;99.90;;;;;;2074620;28;20018;-72
2022/12/21 05:06:59;;;;;;;25.75;16.67;;;12.00;99.90;;;;;;2073374;28;20537;-72
2022/12/21 05:08:00;;;;;;;21.02;16.30;;;12.00;99.90;;;;;;2073919;28;20543;-72
2022/12/21 05:09:00;;;;;;;23.38;17.40;;;12.00;99.90;;;;;;2075911;28;20033;-72
2022/12/21 05:10:01;;;;;;;24.42;17.52;;;12.00;99.90;;;;;;2076233;28;20076;-72
2022/12/21 05:11:11;;;;;;;27.60;17.98;;;12.00;99.90;;;;;;2074220;28;20087;-72
2022/12/21 05:12:12;;;;;;;25.25;16.85;;;12.00;99.90;;;;;;2076766;28;20021;-72
2022/12/21 05:13:12;;;;;;;23.35;17.05;;;12.00;99.90;;;;;;2075597;28;20504;-72
2022/12/21 05:14:13;;;;;;;24.63;17.70;;;12.00;99.90;;;;;;2073284;28;20757;-72
2022/12/21 05:15:16;;;;;;;26.80;17.50;;;12.00;99.90;;;;;;2073225;28;20489;-72
2022/12/21 05:16:22;;;;;;;25.77;17.17;;;12.00;99.90;;;;;;2073295;28;20061;-72
2022/12/21 05:17:23;;;;;;;24.63;17.60;;;12.00;99.90;;;;;;2080755;28;20030;-72
2022/12/21 05:18:23;;;;;;;31.65;18.85;;;12.00;99.90;;;;;;2079337;28;20029;-72
2022/12/21 05:19:24;;;;;;;25.00;17.77;;;12.00;99.90;;;;;;2075446;28;20109;-72
2022/12/21 05:20:24;;;;;;;25.15;18.23;;;12.00;99.90;;;;;;2076571;28;20034;-72
2022/12/21 05:21:25;;;;;;;25.42;17.33;;;12.00;99.90;;;;;;2074183;28;20032;-72
2022/12/21 05:22:26;;;;;;;22.15;17.15;;;12.00;99.90;;;;;;2072917;28;20052;-72
2022/12/21 05:23:26;;;;;;;21.92;16.60;;;12.00;99.90;;;;;;2079797;28;20423;-72
2022/12/21 05:24:27;;;;;;;23.85;17.00;;;12.00;99.90;;;;;;2078982;28;20029;-72
2022/12/21 05:25:27;;;;;;;26.17;17.70;;;11.90;99.90;;;;;;2074950;28;20386;-72
2022/12/21 05:26:28;;;;;;;28.42;18.38;;;12.00;99.90;;;;;;2075515;28;20080;-72
2022/12/21 05:27:28;;;;;;;23.77;17.75;;;12.00;99.90;;;;;;2074117;28;20091;-72
2022/12/21 05:28:29;;;;;;;25.98;17.92;;;12.00;99.90;;;;;;2076682;28;20076;-72
2022/12/21 05:29:29;;;;;;;21.98;17.15;;;12.00;99.90;;;;;;2073940;28;20482;-72
2022/12/21 05:30:30;;;;;;;20.73;15.85;;;12.00;99.90;;;;;;2075046;28;20061;-72
2022/12/21 05:31:31;;;;;;;22.42;16.75;;;12.00;99.90;;;;;;2075439;28;20496;-72
2022/12/21 05:32:31;;;;;;;26.58;16.05;;;12.00;99.90;;;;;;2075299;28;20024;-72
2022/12/21 05:33:32;;;;;;;20.55;16.30;;;12.00;99.90;;;;;;2074605;28;20014;-72
2022/12/21 05:34:32;;;;;;;22.90;16.20;;;12.00;99.90;;;;;;2078806;28;20575;-72
2022/12/21 05:35:37;;;;;;;22.30;15.43;;;12.00;99.90;;;;;;2075692;28;20025;-72
2022/12/21 05:36:37;;;;;;;20.63;15.55;;;12.00;99.90;;;;;;2076349;28;20022;-72
2022/12/21 05:37:38;;;;;;;21.30;14.88;;;12.00;99.90;;;;;;2076443;28;20036;-72
2022/12/21 05:38:38;;;;;;;23.85;17.27;;;12.00;99.90;;;;;;2077794;28;20018;-72
2022/12/21 05:39:39;;;;;;;23.20;16.52;;;12.00;99.90;;;;;;2080181;28;20030;-72
2022/12/21 05:40:45;;;;;;;24.27;16.17;;;12.00;99.90;;;;;;2074534;28;20038;-72
2022/12/21 05:41:46;;;;;;;21.85;14.68;;;12.00;99.90;;;;;;2074894;28;20037;-72
2022/12/21 05:42:46;;;;;;;20.33;14.75;;;12.00;99.90;;;;;;2075383;28;20537;-72
2022/12/21 05:43:47;;;;;;;22.17;15.30;;;12.00;99.90;;;;;;2074316;28;20049;-72
2022/12/21 05:44:47;;;;;;;25.48;16.23;;;12.00;99.90;;;;;;2074733;28;20033;-72
2022/12/21 05:45:48;;;;;;;19.50;14.60;;;12.00;99.90;;;;;;2078804;28;20783;-72